Time;durP1;ratioP1;P1;durP2;ratioP2;P2;SDS_P1;SDS_P2;PMS_P1;PMS_P2;Temp;Humidity;BMP_temperature;BMP_pressure;BME280_temperature;BME280_humidity;BME280_pressure;Samples;Min_cycle;Max_cycle;Signal;HPM_P1;HPM_P2
2023/05/21 00:00:47;;;;;;;0.50;0.50;;;18.70;74.40;;;;;;6240899;23;20194;-83
2023/05/21 00:03:15;;;;;;;0.90;0.83;;;18.70;74.30;;;;;;6244556;23;20604;-84
2023/05/21 00:05:46;;;;;;;0.73;0.70;;;18.70;74.30;;;;;;6241820;23;20684;-83
2023/05/21 00:08:15;;;;;;;1.13;0.67;;;18.70;74.60;;;;;;6241913;23;20170;-84
2023/05/21 00:10:43;;;;;;;1.23;0.63;;;18.60;74.80;;;;;;6242665;23;20261;-83
2023/05/21 00:13:12;;;;;;;0.93;0.77;;;18.60;74.70;;;;;;6242245;23;20642;-83
2023/05/21 00:15:41;;;;;;;0.60;0.60;;;18.60;74.90;;;;;;6211993;23;20651;-83
2023/05/21 00:18:10;;;;;;;0.70;0.70;;;18.60;74.90;;;;;;6191411;23;20245;-84
2023/05/21 00:20:40;;;;;;;0.67;0.57;;;18.50;74.80;;;;;;6242904;23;20174;-84
2023/05/21 00:23:11;;;;;;;0.63;0.63;;;18.50;74.80;;;;;;6242391;23;20249;-83
2023/05/21 00:25:39;;;;;;;2.30;1.43;;;18.50;74.80;;;;;;6216875;23;20158;-84
2023/05/21 00:28:08;;;;;;;1.53;1.33;;;18.50;74.90;;;;;;6241760;23;20178;-83
2023/05/21 00:30:37;;;;;;;0.93;0.87;;;18.50;74.90;;;;;;6241768;23;20257;-83
2023/05/21 00:33:06;;;;;;;1.20;1.00;;;18.40;74.90;;;;;;6242787;23;20205;-83
2023/05/21 00:35:34;;;;;;;0.50;0.40;;;18.40;74.90;;;;;;6243504;23;20178;-83
2023/05/21 00:38:03;;;;;;;1.03;0.70;;;18.40;74.90;;;;;;6243384;23;20171;-83
2023/05/21 00:40:33;;;;;;;0.53;0.53;;;18.40;74.90;;;;;;6243670;23;20502;-83
2023/05/21 00:43:02;;;;;;;0.97;0.83;;;18.40;74.90;;;;;;6243773;23;20601;-83
2023/05/21 00:45:30;;;;;;;0.83;0.83;;;18.40;75.00;;;;;;6243743;23;20555;-82
2023/05/21 00:48:01;;;;;;;0.77;0.67;;;18.30;74.90;;;;;;6239597;23;20201;-82
2023/05/21 00:50:30;;;;;;;0.57;0.57;;;18.30;75.00;;;;;;6241221;23;20186;-84
2023/05/21 00:52:59;;;;;;;0.50;0.50;;;18.30;75.00;;;;;;6242583;23;20522;-83
2023/05/21 00:55:27;;;;;;;1.53;1.43;;;18.30;75.00;;;;;;6238240;23;20175;-84
2023/05/21 00:57:57;;;;;;;1.50;1.37;;;18.20;75.10;;;;;;6241943;23;20166;-84
2023/05/21 01:00:27;;;;;;;0.77;0.70;;;18.20;75.10;;;;;;6241312;23;20373;-84
2023/05/21 01:02:55;;;;;;;1.63;0.93;;;18.20;75.20;;;;;;6241754;23;20163;-83
2023/05/21 01:05:24;;;;;;;0.60;0.60;;;18.20;75.30;;;;;;6240923;23;20169;-84
2023/05/21 01:07:53;;;;;;;1.63;1.27;;;18.20;75.50;;;;;;6241671;23;20651;-84
2023/05/21 01:10:21;;;;;;;0.83;0.80;;;18.20;75.50;;;;;;6241250;23;20167;-84
2023/05/21 01:12:51;;;;;;;0.80;0.80;;;18.10;75.50;;;;;;6242310;23;20196;-83
2023/05/21 01:15:21;;;;;;;1.30;0.70;;;18.10;75.50;;;;;;6243715;23;20166;-82
2023/05/21 01:17:50;;;;;;;1.23;1.07;;;18.10;75.50;;;;;;6243320;23;20181;-83
2023/05/21 01:20:20;;;;;;;2.57;1.23;;;18.10;75.80;;;;;;6243549;23;20174;-83
2023/05/21 01:22:54;;;;;;;0.97;0.87;;;18.10;75.80;;;;;;6243788;23;20167;-82
2023/05/21 01:25:23;;;;;;;1.57;1.10;;;18.10;75.90;;;;;;6243492;23;20563;-82
2023/05/21 01:27:52;;;;;;;2.63;1.57;;;18.10;75.90;;;;;;6242843;23;20166;-83
2023/05/21 01:30:22;;;;;;;0.30;0.30;;;18.10;76.00;;;;;;6241504;23;20505;-84
2023/05/21 01:32:58;;;;;;;1.47;0.70;;;18.00;76.10;;;;;;6216256;23;20194;-83
2023/05/21 01:35:31;;;;;;;2.10;1.23;;;18.00;76.10;;;;;;6241246;23;20166;-85
2023/05/21 01:38:09;;;;;;;1.17;0.90;;;18.00;76.10;;;;;;6241904;23;20186;-84
2023/05/21 01:40:45;;;;;;;2.23;0.73;;;18.00;76.20;;;;;;6241089;23;20181;-82
2023/05/21 01:43:15;;;;;;;0.77;0.70;;;18.00;76.30;;;;;;6241017;23;20158;-82
2023/05/21 01:45:45;;;;;;;2.73;1.23;;;18.00;77.20;;;;;;6240498;23;20174;-84
2023/05/21 01:48:16;;;;;;;1.13;1.03;;;18.00;76.30;;;;;;6243113;23;20451;-83
2023/05/21 01:50:45;;;;;;;0.40;0.40;;;18.00;76.30;;;;;;6242894;23;20900;-83
2023/05/21 01:53:16;;;;;;;0.70;0.70;;;18.00;76.40;;;;;;6243684;23;20193;-83
2023/05/21 01:55:45;;;;;;;0.57;0.47;;;18.00;76.60;;;;;;6242401;23;20246;-83
2023/05/21 01:58:15;;;;;;;6.07;0.73;;;18.00;76.60;;;;;;6243974;23;20658;-83
2023/05/21 02:00:45;;;;;;;0.43;0.43;;;18.00;76.90;;;;;;6242192;23;20217;-82
2023/05/21 02:03:15;;;;;;;0.60;0.60;;;18.00;76.80;;;;;;6242859;23;20182;-83
2023/05/21 02:05:44;;;;;;;0.63;0.60;;;18.00;76.80;;;;;;6242242;23;20483;-84
2023/05/21 02:08:13;;;;;;;1.83;1.00;;;18.00;76.80;;;;;;6216477;23;20555;-84
2023/05/21 02:10:44;;;;;;;0.80;0.70;;;18.00;76.80;;;;;;6240016;23;20162;-84
2023/05/21 02:13:12;;;;;;;1.80;0.93;;;17.90;76.90;;;;;;6241520;23;20673;-83
2023/05/21 02:15:41;;;;;;;0.90;0.90;;;18.00;77.20;;;;;;6241909;23;20167;-84
2023/05/21 02:18:10;;;;;;;2.20;0.60;;;17.90;77.30;;;;;;6242108;23;20179;-85
2023/05/21 02:20:38;;;;;;;1.33;0.97;;;17.90;77.30;;;;;;6241591;23;20686;-84
2023/05/21 02:23:07;;;;;;;0.87;0.60;;;17.90;77.20;;;;;;6242932;23;20177;-83
2023/05/21 02:25:35;;;;;;;0.57;0.57;;;17.90;77.30;;;;;;6239947;23;20465;-83
2023/05/21 02:28:06;;;;;;;0.60;0.60;;;17.90;77.40;;;;;;6240565;23;20250;-82
2023/05/21 02:30:35;;;;;;;0.83;0.67;;;17.90;77.40;;;;;;6242175;23;20543;-82
2023/05/21 02:33:04;;;;;;;0.90;0.83;;;17.90;77.50;;;;;;6258408;23;20222;-83
2023/05/21 02:35:33;;;;;;;1.60;1.17;;;17.90;77.40;;;;;;6258786;23;20205;-83
2023/05/21 02:38:02;;;;;;;0.50;0.50;;;17.90;77.30;;;;;;6247641;23;20177;-83
2023/05/21 02:40:31;;;;;;;0.40;0.40;;;17.90;77.40;;;;;;6242478;23;20253;-83
2023/05/21 02:43:00;;;;;;;2.33;0.90;;;17.90;77.40;;;;;;6243338;23;20554;-83
2023/05/21 02:45:30;;;;;;;1.63;1.37;;;17.90;77.60;;;;;;6237698;23;20170;-83
2023/05/21 02:47:59;;;;;;;2.27;1.20;;;17.90;77.70;;;;;;6242577;23;20155;-83
2023/05/21 02:50:27;;;;;;;1.40;1.07;;;17.80;77.70;;;;;;6241142;23;20204;-83
2023/05/21 02:52:58;;;;;;;0.47;0.47;;;17.80;77.60;;;;;;6244437;23;20170;-83
2023/05/21 02:55:26;;;;;;;1.07;0.73;;;17.80;77.70;;;;;;6215604;23;20598;-83
2023/05/21 02:57:55;;;;;;;1.20;1.13;;;17.80;77.70;;;;;;6240544;23;20177;-82
2023/05/21 03:00:23;;;;;;;0.40;0.30;;;17.80;77.70;;;;;;6240413;23;20170;-83
2023/05/21 03:02:53;;;;;;;0.53;0.50;;;17.80;77.70;;;;;;6240050;23;20165;-83
2023/05/21 03:05:23;;;;;;;0.47;0.47;;;17.80;77.70;;;;;;6241453;23;20488;-82
2023/05/21 03:07:52;;;;;;;1.97;1.47;;;17.80;78.00;;;;;;6241649;23;20170;-83
2023/05/21 03:10:21;;;;;;;1.90;1.23;;;17.80;78.20;;;;;;6241757;23;20548;-83
2023/05/21 03:12:49;;;;;;;0.37;0.37;;;17.80;79.40;;;;;;6215135;23;20239;-83
2023/05/21 03:15:22;;;;;;;1.57;1.20;;;17.80;79.20;;;;;;6241332;23;20190;-83
2023/05/21 03:17:54;;;;;;;4.80;1.10;;;17.80;79.10;;;;;;6238785;23;20237;-83
2023/05/21 03:20:22;;;;;;;0.93;0.83;;;17.80;78.90;;;;;;6240501;23;20254;-83
2023/05/21 03:22:51;;;;;;;0.63;0.63;;;17.80;78.80;;;;;;6242886;23;20174;-83
2023/05/21 03:25:20;;;;;;;1.00;0.90;;;17.80;78.80;;;;;;6243343;23;20241;-83
2023/05/21 03:27:48;;;;;;;0.60;0.60;;;17.80;78.80;;;;;;6240433;23;20189;-83
2023/05/21 03:30:17;;;;;;;0.77;0.77;;;17.90;79.00;;;;;;6239519;23;20171;-82
2023/05/21 03:32:46;;;;;;;2.03;1.10;;;17.90;79.10;;;;;;6242952;23;20170;-83
2023/05/21 03:35:17;;;;;;;4.27;1.77;;;17.90;79.60;;;;;;6242786;23;20190;-82
2023/05/21 03:37:46;;;;;;;1.80;0.90;;;17.90;79.80;;;;;;6241820;23;20178;-83
2023/05/21 03:40:15;;;;;;;3.60;1.00;;;18.00;80.00;;;;;;6215571;23;20178;-82
2023/05/21 03:42:44;;;;;;;1.73;1.13;;;18.00;80.50;;;;;;6216550;23;20170;-82
2023/05/21 03:45:12;;;;;;;0.90;0.63;;;18.00;81.20;;;;;;6215626;23;20173;-82
2023/05/21 03:47:41;;;;;;;1.17;1.07;;;18.10;81.10;;;;;;6217461;23;20225;-81
2023/05/21 03:50:11;;;;;;;0.70;0.53;;;18.10;81.70;;;;;;6215990;23;20171;-83
2023/05/21 03:52:41;;;;;;;0.67;0.53;;;18.20;82.10;;;;;;6243236;23;20220;-83
2023/05/21 03:55:10;;;;;;;1.17;0.93;;;18.20;82.20;;;;;;6238375;23;20585;-83
2023/05/21 03:57:38;;;;;;;1.40;1.13;;;18.20;82.50;;;;;;6239118;23;20220;-82
2023/05/21 04:00:08;;;;;;;1.30;0.97;;;18.30;83.10;;;;;;6240650;23;20175;-82
2023/05/21 04:02:37;;;;;;;2.93;0.93;;;18.40;83.10;;;;;;6242693;23;20497;-82
2023/05/21 04:05:07;;;;;;;1.53;1.43;;;18.40;83.30;;;;;;6242528;23;20550;-83
2023/05/21 04:07:37;;;;;;;2.17;1.60;;;18.50;83.50;;;;;;6243891;23;20174;-82
2023/05/21 04:10:08;;;;;;;2.13;1.37;;;18.40;83.90;;;;;;6243546;23;20189;-82
2023/05/21 04:12:36;;;;;;;1.63;1.10;;;18.50;84.00;;;;;;6243628;23;20167;-82
2023/05/21 04:15:06;;;;;;;4.40;1.40;;;18.60;84.30;;;;;;6242588;23;20202;-83
2023/05/21 04:17:34;;;;;;;1.27;1.03;;;18.60;84.20;;;;;;6243132;23;20170;-83
2023/05/21 04:20:03;;;;;;;2.10;1.50;;;18.70;84.40;;;;;;6244290;23;20175;-82
2023/05/21 04:22:32;;;;;;;4.57;1.13;;;18.80;84.20;;;;;;6241502;23;20170;-83
2023/05/21 04:25:01;;;;;;;0.83;0.80;;;18.80;84.10;;;;;;6240506;23;20273;-84
2023/05/21 04:27:30;;;;;;;4.50;1.13;;;18.90;84.00;;;;;;6240707;23;20173;-82
2023/05/21 04:30:40;;;;;;;1.37;1.07;;;18.90;83.90;;;;;;6241779;23;20171;-83
2023/05/21 04:33:09;;;;;;;1.73;1.00;;;19.00;83.80;;;;;;6239685;23;20249;-82
2023/05/21 04:35:43;;;;;;;1.63;0.90;;;19.10;83.80;;;;;;6241596;23;20269;-83
2023/05/21 04:38:12;;;;;;;0.93;0.87;;;19.20;83.60;;;;;;6242198;23;20166;-84
2023/05/21 04:40:42;;;;;;;0.97;0.70;;;19.20;83.30;;;;;;6241106;23;20170;-84
2023/05/21 04:43:12;;;;;;;1.60;1.23;;;19.30;83.20;;;;;;6240661;23;20169;-83
2023/05/21 04:45:40;;;;;;;1.53;1.23;;;19.40;82.90;;;;;;6238848;23;20185;-84
2023/05/21 04:48:09;;;;;;;0.70;0.70;;;19.40;82.40;;;;;;6241022;23;20174;-82
2023/05/21 04:50:40;;;;;;;0.83;0.80;;;19.50;82.00;;;;;;6242174;23;20746;-83
2023/05/21 04:53:08;;;;;;;1.03;0.77;;;19.60;81.90;;;;;;6239669;23;20158;-85
2023/05/21 04:55:38;;;;;;;1.80;1.00;;;19.60;81.70;;;;;;6240981;23;20495;-85
2023/05/21 04:58:09;;;;;;;0.50;0.50;;;19.70;81.60;;;;;;6242971;23;20170;-86
2023/05/21 05:00:44;;;;;;;1.37;0.77;;;19.80;81.20;;;;;;6240295;23;20608;-86
2023/05/21 05:03:13;;;;;;;1.23;1.07;;;19.80;81.10;;;;;;6242238;23;20210;-82
2023/05/21 05:05:42;;;;;;;0.67;0.67;;;20.00;81.10;;;;;;6241662;23;20166;-85
2023/05/21 05:08:11;;;;;;;1.20;0.88;;;20.10;80.90;;;;;;6241243;23;20595;-83
2023/05/21 05:10:43;;;;;;;0.80;0.80;;;20.10;80.30;;;;;;6242318;23;20182;-83
2023/05/21 05:13:11;;;;;;;1.08;0.98;;;20.20;80.40;;;;;;6243033;23;20174;-84
2023/05/21 05:15:41;;;;;;;0.80;0.80;;;20.30;79.80;;;;;;6242514;23;20200;-84
2023/05/21 05:18:10;;;;;;;1.08;0.82;;;20.30;79.70;;;;;;6241964;23;20167;-83
2023/05/21 05:20:39;;;;;;;1.05;0.90;;;20.40;79.60;;;;;;6242098;23;20183;-85
2023/05/21 05:23:07;;;;;;;1.63;0.70;;;20.50;79.40;;;;;;6242465;23;20170;-83
2023/05/21 05:25:36;;;;;;;2.53;0.85;;;20.60;79.30;;;;;;6241157;23;20281;-83
2023/05/21 05:28:05;;;;;;;2.05;1.40;;;20.60;79.20;;;;;;6240568;23;20170;-83
2023/05/21 05:30:34;;;;;;;2.22;1.73;;;20.80;78.50;;;;;;6241786;23;20166;-84
2023/05/21 05:33:04;;;;;;;0.55;0.55;;;20.80;77.70;;;;;;6243005;23;20241;-82
2023/05/21 05:35:33;;;;;;;4.30;1.70;;;20.90;77.90;;;;;;6242181;23;20190;-82
2023/05/21 05:38:02;;;;;;;1.38;1.00;;;21.00;78.20;;;;;;6242592;23;20182;-82
2023/05/21 05:47:47;;;;;;;2.45;1.73;;;21.30;76.70;;;;;;6141066;23;20526;-82
2023/05/21 05:54:18;;;;;;;2.45;1.02;;;21.50;75.40;;;;;;6219147;23;20167;-83
2023/05/21 06:10:33;;;;;;;0.70;0.55;;;22.10;73.90;;;;;;6239309;22;20267;-85
2023/05/21 06:22:41;;;;;;;8.80;1.67;;;22.50;73.80;;;;;;6271646;22;20221;-84
2023/05/21 06:25:10;;;;;;;1.13;0.80;;;22.60;73.50;;;;;;6244073;22;20216;-84
2023/05/21 06:27:41;;;;;;;0.55;0.52;;;22.70;72.80;;;;;;6245537;22;20162;-82
2023/05/21 06:30:10;;;;;;;1.00;0.88;;;22.80;72.90;;;;;;6270903;22;20167;-85
2023/05/21 06:32:39;;;;;;;2.55;1.25;;;22.80;71.90;;;;;;6242787;22;20253;-82
2023/05/21 06:35:08;;;;;;;0.47;0.40;;;22.90;71.40;;;;;;6271417;22;20185;-84
2023/05/21 06:37:37;;;;;;;2.00;0.95;;;23.00;71.30;;;;;;6244730;22;20192;-84
2023/05/21 06:40:20;;;;;;;1.45;1.08;;;23.10;71.60;;;;;;6267461;22;20236;-83
2023/05/21 06:42:51;;;;;;;5.40;0.82;;;23.20;69.70;;;;;;6270039;22;20173;-83
2023/05/21 06:45:19;;;;;;;10.60;1.95;;;23.20;70.30;;;;;;6272138;22;20200;-81
2023/05/21 06:47:48;;;;;;;2.22;0.95;;;23.30;70.50;;;;;;6270611;22;20609;-83
2023/05/21 06:50:19;;;;;;;5.25;1.10;;;23.40;70.50;;;;;;6271476;22;20266;-86
2023/05/21 06:52:47;;;;;;;0.95;0.60;;;23.50;70.50;;;;;;6272357;22;20233;-86
2023/05/21 06:55:16;;;;;;;0.57;0.57;;;23.60;70.10;;;;;;6270485;22;20165;-84
2023/05/21 06:57:45;;;;;;;0.80;0.68;;;23.60;69.90;;;;;;6271737;22;20492;-85
2023/05/21 07:00:15;;;;;;;0.90;0.70;;;23.70;70.00;;;;;;6271829;22;20168;-82
2023/05/21 07:02:43;;;;;;;1.55;0.85;;;23.80;70.00;;;;;;6268244;22;20154;-83
2023/05/21 07:05:12;;;;;;;0.88;0.85;;;23.80;69.40;;;;;;6272688;22;20169;-87
2023/05/21 07:07:41;;;;;;;0.60;0.60;;;23.90;68.70;;;;;;6273228;22;20170;-86
2023/05/21 07:10:10;;;;;;;2.65;1.52;;;23.80;68.30;;;;;;6269781;22;20717;-85
2023/05/21 07:12:39;;;;;;;2.45;0.90;;;23.90;67.70;;;;;;6271368;22;20535;-83
2023/05/21 07:15:09;;;;;;;0.50;0.45;;;24.00;68.00;;;;;;6271658;22;20169;-85
2023/05/21 07:17:39;;;;;;;1.45;0.93;;;24.00;67.60;;;;;;6267312;22;20245;-85
2023/05/21 07:20:08;;;;;;;2.58;1.23;;;24.00;67.20;;;;;;6269288;22;20187;-86
2023/05/21 07:22:38;;;;;;;2.88;0.93;;;24.00;67.20;;;;;;6269338;22;20232;-82
2023/05/21 07:25:08;;;;;;;1.13;1.02;;;24.10;67.70;;;;;;6270815;22;20162;-86
2023/05/21 07:27:36;;;;;;;0.88;0.80;;;24.20;67.70;;;;;;6272598;22;20174;-87
2023/05/21 07:30:05;;;;;;;2.25;1.23;;;24.20;67.50;;;;;;6269715;22;20180;-83
2023/05/21 07:32:34;;;;;;;1.35;1.02;;;24.10;65.60;;;;;;6270053;22;20166;-84
2023/05/21 07:35:04;;;;;;;1.65;1.45;;;24.20;65.80;;;;;;6271200;22;20181;-82
2023/05/21 07:37:32;;;;;;;0.85;0.70;;;24.20;66.00;;;;;;6245529;22;20269;-83
2023/05/21 07:40:01;;;;;;;2.38;0.95;;;24.30;65.10;;;;;;6273465;22;20178;-85
2023/05/21 07:42:30;;;;;;;2.72;1.08;;;24.30;65.70;;;;;;6273506;22;20198;-85
2023/05/21 07:44:59;;;;;;;2.05;0.93;;;24.40;66.00;;;;;;6273449;22;20173;-84
2023/05/21 07:47:27;;;;;;;1.77;0.88;;;24.40;65.40;;;;;;6274854;22;20170;-85
2023/05/21 07:49:55;;;;;;;2.53;1.25;;;24.40;64.70;;;;;;6273165;22;20611;-85
2023/05/21 07:52:25;;;;;;;0.70;0.70;;;24.50;65.00;;;;;;6275037;22;20166;-84
2023/05/21 07:54:53;;;;;;;0.55;0.55;;;24.50;65.10;;;;;;6273577;22;20479;-83
2023/05/21 07:57:22;;;;;;;0.50;0.30;;;24.60;65.60;;;;;;6274624;22;20194;-82
2023/05/21 07:59:50;;;;;;;1.10;0.63;;;24.60;64.50;;;;;;6272634;22;20945;-84
2023/05/21 08:02:18;;;;;;;1.33;1.00;;;24.70;64.50;;;;;;6272925;22;20174;-84
2023/05/21 08:04:47;;;;;;;1.05;0.80;;;24.70;64.80;;;;;;6271714;22;20170;-83
2023/05/21 08:07:18;;;;;;;0.38;0.38;;;24.70;63.50;;;;;;6273170;22;20174;-84
2023/05/21 08:09:48;;;;;;;1.52;1.02;;;24.80;63.80;;;;;;6272531;22;20154;-82
2023/05/21 08:12:18;;;;;;;0.80;0.50;;;24.80;64.40;;;;;;6276950;22;20216;-83
2023/05/21 08:14:46;;;;;;;5.97;1.38;;;24.90;65.00;;;;;;6274278;22;20166;-82
2023/05/21 08:17:14;;;;;;;1.45;1.10;;;25.00;63.50;;;;;;6274413;22;20203;-83
2023/05/21 08:19:43;;;;;;;1.58;0.75;;;25.00;63.90;;;;;;6274405;22;20618;-83
2023/05/21 08:22:11;;;;;;;0.98;0.80;;;25.00;63.30;;;;;;6272568;22;20318;-82
2023/05/21 08:24:40;;;;;;;1.73;0.90;;;25.10;63.50;;;;;;6272877;22;20231;-83
2023/05/21 08:27:10;;;;;;;1.48;1.10;;;25.20;64.00;;;;;;6275638;22;20622;-83
2023/05/21 08:29:38;;;;;;;1.48;0.70;;;25.30;64.10;;;;;;6275081;22;20176;-82
2023/05/21 08:32:08;;;;;;;0.85;0.80;;;25.30;63.80;;;;;;6276079;22;20637;-85
2023/05/21 08:34:37;;;;;;;2.50;1.60;;;25.30;62.90;;;;;;6272703;22;20157;-82
2023/05/21 08:37:05;;;;;;;3.20;0.88;;;25.30;62.30;;;;;;6274849;22;20259;-84
2023/05/21 08:39:33;;;;;;;1.58;0.90;;;25.30;62.40;;;;;;6274007;22;20541;-82
2023/05/21 08:42:09;;;;;;;2.20;1.48;;;25.40;62.90;;;;;;6276101;22;20166;-84
2023/05/21 08:44:46;;;;;;;2.95;1.52;;;25.40;62.70;;;;;;6273217;22;20154;-82
2023/05/21 08:47:18;;;;;;;0.70;0.70;;;25.50;62.10;;;;;;6275916;22;20161;-83
2023/05/21 08:49:48;;;;;;;1.20;0.73;;;25.60;62.90;;;;;;6274137;22;20256;-83
2023/05/21 08:52:16;;;;;;;1.02;0.80;;;25.50;61.60;;;;;;6249401;22;20170;-83
2023/05/21 08:54:46;;;;;;;1.08;0.98;;;25.60;62.20;;;;;;6273648;22;21069;-84
2023/05/21 08:57:15;;;;;;;1.70;1.05;;;25.60;61.50;;;;;;6274150;22;20224;-83
2023/05/21 08:59:46;;;;;;;0.50;0.50;;;25.60;61.70;;;;;;6273465;22;20170;-85
2023/05/21 09:02:17;;;;;;;1.45;0.95;;;25.70;61.70;;;;;;6275038;22;20154;-84
2023/05/21 09:04:48;;;;;;;4.32;1.17;;;25.70;62.20;;;;;;6273945;22;20518;-83
2023/05/21 09:07:16;;;;;;;0.63;0.63;;;25.80;62.10;;;;;;6274513;22;20158;-84
2023/05/21 09:09:50;;;;;;;4.28;1.40;;;25.90;62.00;;;;;;6274282;22;20513;-82
2023/05/21 09:12:19;;;;;;;0.75;0.75;;;25.90;61.40;;;;;;6275282;22;20479;-82
2023/05/21 09:14:49;;;;;;;0.60;0.60;;;26.00;61.40;;;;;;6274863;22;20165;-84
2023/05/21 09:17:19;;;;;;;1.40;1.30;;;26.10;60.00;;;;;;6276381;22;20655;-85
2023/05/21 09:20:11;;;;;;;1.90;1.13;;;26.10;59.10;;;;;;6280191;22;20174;-84
2023/05/21 09:22:43;;;;;;;4.47;2.08;;;26.10;59.10;;;;;;6282825;22;20515;-85
2023/05/21 09:25:12;;;;;;;4.25;2.83;;;26.20;60.00;;;;;;6274076;22;20473;-84
2023/05/21 09:27:41;;;;;;;3.58;2.55;;;26.20;59.70;;;;;;6275786;22;20549;-83
2023/05/21 09:30:13;;;;;;;3.20;1.70;;;26.30;59.20;;;;;;6273556;22;20170;-84
2023/05/21 09:32:42;;;;;;;1.15;0.98;;;26.40;57.50;;;;;;6274608;22;20166;-84
2023/05/21 09:35:12;;;;;;;2.15;1.20;;;26.40;57.60;;;;;;6274531;22;20546;-83
2023/05/21 09:37:42;;;;;;;0.70;0.70;;;26.50;57.60;;;;;;6273707;22;20194;-83
2023/05/21 09:40:13;;;;;;;1.60;0.85;;;26.60;57.50;;;;;;6272468;22;20558;-83
2023/05/21 09:42:44;;;;;;;4.15;1.00;;;26.60;56.50;;;;;;6274560;22;20160;-86
2023/05/21 09:45:18;;;;;;;4.85;1.85;;;26.70;57.10;;;;;;6273033;22;20158;-84
2023/05/21 09:47:47;;;;;;;0.55;0.55;;;26.80;56.80;;;;;;6273299;22;20154;-83
2023/05/21 09:50:19;;;;;;;2.25;1.17;;;26.80;56.30;;;;;;6273368;22;20176;-83
2023/05/21 09:52:49;;;;;;;0.88;0.65;;;26.90;56.50;;;;;;6273678;22;20579;-85
2023/05/21 09:55:18;;;;;;;1.33;0.82;;;26.90;55.40;;;;;;6274632;22;20158;-84
2023/05/21 09:57:48;;;;;;;1.35;0.90;;;26.90;55.40;;;;;;6274109;22;20769;-84
2023/05/21 10:00:21;;;;;;;0.73;0.73;;;27.00;55.90;;;;;;6273728;22;20154;-82
2023/05/21 10:02:53;;;;;;;1.17;0.93;;;27.10;56.00;;;;;;6274831;22;20162;-81
2023/05/21 10:05:26;;;;;;;0.93;0.82;;;27.10;56.00;;;;;;6271565;22;20158;-84
2023/05/21 10:07:59;;;;;;;0.88;0.60;;;27.20;55.90;;;;;;6273359;22;20224;-83
2023/05/21 10:10:29;;;;;;;1.05;0.85;;;27.20;55.30;;;;;;6273175;22;20161;-82
2023/05/21 10:13:01;;;;;;;1.77;0.98;;;27.20;54.70;;;;;;6276141;22;20173;-83
2023/05/21 10:15:35;;;;;;;1.00;0.95;;;27.30;54.80;;;;;;6272285;22;20164;-83
2023/05/21 10:18:04;;;;;;;1.38;0.73;;;27.40;55.10;;;;;;6275702;22;20181;-84
2023/05/21 10:20:34;;;;;;;3.40;1.00;;;27.40;55.10;;;;;;6272238;22;20224;-85
2023/05/21 10:23:03;;;;;;;0.98;0.52;;;27.50;54.50;;;;;;6274991;22;20154;-83
2023/05/21 10:25:32;;;;;;;0.60;0.40;;;27.50;53.60;;;;;;6271203;22;20473;-85
2023/05/21 10:28:00;;;;;;;1.42;0.90;;;27.50;54.20;;;;;;6275772;22;20592;-84
2023/05/21 10:30:31;;;;;;;3.30;1.05;;;27.50;54.00;;;;;;6272307;22;20166;-86
2023/05/21 10:33:01;;;;;;;0.88;0.80;;;27.60;53.90;;;;;;6274736;22;20624;-85
2023/05/21 10:35:30;;;;;;;2.38;1.13;;;27.60;53.10;;;;;;6270983;22;20162;-84
2023/05/21 10:38:01;;;;;;;0.93;0.80;;;27.70;53.90;;;;;;6274126;22;20189;-84
2023/05/21 10:40:30;;;;;;;7.97;0.70;;;27.70;53.30;;;;;;6272634;22;20154;-84
2023/05/21 10:43:38;;;;;;;3.13;1.42;;;27.70;53.10;;;;;;6275368;22;20169;-81
2023/05/21 10:46:35;;;;;;;1.60;1.25;;;27.70;52.90;;;;;;6273012;22;20166;-83
2023/05/21 10:49:30;;;;;;;1.67;1.27;;;27.80;53.70;;;;;;6274221;22;20158;-82
2023/05/21 10:52:07;;;;;;;1.63;1.15;;;27.80;53.80;;;;;;6275384;22;20227;-83
2023/05/21 10:55:09;;;;;;;7.13;2.42;;;27.80;54.00;;;;;;6272825;22;20161;-81
2023/05/21 10:57:59;;;;;;;4.25;1.42;;;27.80;53.80;;;;;;6272941;22;20178;-81
2023/05/21 11:00:30;;;;;;;1.92;1.05;;;27.90;53.30;;;;;;6273403;22;20538;-83
2023/05/21 11:03:02;;;;;;;2.85;1.23;;;27.90;53.30;;;;;;6269320;22;20249;-82
2023/05/21 11:05:41;;;;;;;5.15;1.58;;;27.90;53.10;;;;;;6271092;22;20638;-81
2023/05/21 11:08:22;;;;;;;1.13;1.02;;;28.00;52.60;;;;;;6271703;22;20618;-82
2023/05/21 11:10:56;;;;;;;2.35;1.40;;;28.00;52.20;;;;;;6268981;22;20189;-88
2023/05/21 11:13:26;;;;;;;1.23;0.98;;;27.90;51.70;;;;;;6269658;22;20537;-83
2023/05/21 11:16:07;;;;;;;1.17;1.02;;;28.00;52.10;;;;;;6270279;22;20173;-84
2023/05/21 11:19:03;;;;;;;3.63;0.95;;;28.00;52.60;;;;;;6271985;22;21039;-83
2023/05/21 11:21:34;;;;;;;1.02;0.70;;;28.10;53.30;;;;;;6267034;22;20185;-83
2023/05/21 11:24:05;;;;;;;1.60;0.95;;;28.20;52.90;;;;;;6271367;22;20165;-84
2023/05/21 11:27:05;;;;;;;3.22;1.02;;;28.30;53.10;;;;;;6271142;22;20545;-85
2023/05/21 11:29:55;;;;;;;2.83;1.13;;;28.30;52.20;;;;;;6272329;22;20162;-83
2023/05/21 11:32:23;;;;;;;6.10;1.20;;;28.40;52.30;;;;;;6272093;22;20158;-85
2023/05/21 11:34:53;;;;;;;1.88;1.27;;;28.40;51.90;;;;;;6245077;22;20174;-83
2023/05/21 11:37:30;;;;;;;7.35;1.45;;;28.30;51.20;;;;;;6272054;22;20170;-84
2023/05/21 11:40:14;;;;;;;2.63;1.25;;;28.40;50.90;;;;;;6271004;22;20602;-84
2023/05/21 11:42:43;;;;;;;1.23;0.82;;;28.40;51.10;;;;;;6270582;22;20237;-84
2023/05/21 11:45:12;;;;;;;2.47;1.17;;;28.50;51.60;;;;;;6273216;22;20169;-84
2023/05/21 11:47:41;;;;;;;1.38;0.95;;;28.50;51.50;;;;;;6244601;22;20169;-83
2023/05/21 11:50:14;;;;;;;1.58;1.35;;;28.60;51.80;;;;;;6271885;22;20174;-85
2023/05/21 11:52:44;;;;;;;1.83;1.35;;;28.70;51.50;;;;;;6271855;22;20157;-83
2023/05/21 11:55:14;;;;;;;1.15;1.02;;;28.80;51.30;;;;;;6272819;22;20168;-85
2023/05/21 11:57:44;;;;;;;1.85;1.13;;;28.80;50.50;;;;;;6272616;22;20154;-82
2023/05/21 12:00:16;;;;;;;1.13;0.95;;;28.80;50.70;;;;;;6273580;22;20196;-82
2023/05/21 12:02:47;;;;;;;0.98;0.70;;;28.90;50.80;;;;;;6270866;22;20487;-83
2023/05/21 12:05:17;;;;;;;4.38;1.55;;;29.00;51.00;;;;;;6272058;22;20165;-83
2023/05/21 12:07:50;;;;;;;0.57;0.50;;;29.00;50.70;;;;;;6272857;22;20165;-84
2023/05/21 12:10:22;;;;;;;1.23;1.13;;;29.00;50.70;;;;;;6272286;22;20505;-84
2023/05/21 12:12:50;;;;;;;1.25;0.80;;;29.00;50.70;;;;;;6270758;22;20166;-84
2023/05/21 12:15:24;;;;;;;0.57;0.57;;;28.90;50.40;;;;;;6271201;22;20223;-83
2023/05/21 12:17:54;;;;;;;0.55;0.55;;;28.90;50.80;;;;;;6272741;22;20169;-85
2023/05/21 12:20:26;;;;;;;0.88;0.57;;;28.90;50.30;;;;;;6272952;22;20170;-85
2023/05/21 12:22:57;;;;;;;2.17;1.13;;;29.00;50.70;;;;;;6272489;22;20154;-85
2023/05/21 12:25:26;;;;;;;2.90;1.52;;;29.00;50.90;;;;;;6271743;22;20615;-86
2023/05/21 12:27:56;;;;;;;0.63;0.43;;;29.10;50.80;;;;;;6272752;22;20623;-85
2023/05/21 12:30:29;;;;;;;0.70;0.63;;;29.10;50.50;;;;;;6269643;22;20166;-87
2023/05/21 12:33:00;;;;;;;3.70;0.90;;;29.10;49.80;;;;;;6273093;22;20507;-85
2023/05/21 12:35:31;;;;;;;2.15;1.52;;;29.10;49.80;;;;;;6273985;22;20162;-84
2023/05/21 12:38:02;;;;;;;1.35;1.23;;;29.10;50.00;;;;;;6271219;22;20170;-85
2023/05/21 12:40:38;;;;;;;2.38;1.50;;;29.20;50.00;;;;;;6274033;22;20642;-85
2023/05/21 12:43:11;;;;;;;1.60;1.00;;;29.20;50.10;;;;;;6273061;22;20211;-85
2023/05/21 12:45:42;;;;;;;1.20;0.90;;;29.30;49.70;;;;;;6277645;22;20212;-84
2023/05/21 12:48:11;;;;;;;2.65;1.17;;;29.30;49.60;;;;;;6270183;22;20304;-83
2023/05/21 12:50:42;;;;;;;0.90;0.82;;;29.30;49.00;;;;;;6271629;22;20205;-83
2023/05/21 12:53:11;;;;;;;1.25;0.88;;;29.30;49.70;;;;;;6273717;22;20170;-83
2023/05/21 12:55:40;;;;;;;1.77;0.93;;;29.20;50.00;;;;;;6272825;22;20170;-84
2023/05/21 12:58:08;;;;;;;1.90;1.05;;;29.20;50.00;;;;;;6273830;22;20197;-82
2023/05/21 13:00:37;;;;;;;1.40;1.30;;;29.30;49.70;;;;;;6269973;22;20201;-83
2023/05/21 13:03:06;;;;;;;0.73;0.70;;;29.30;49.50;;;;;;6276490;22;20180;-83
2023/05/21 13:05:35;;;;;;;1.27;0.80;;;29.20;49.40;;;;;;6273100;22;20166;-84
2023/05/21 13:08:09;;;;;;;1.02;0.75;;;29.20;49.40;;;;;;6269610;22;20174;-83
2023/05/21 13:10:38;;;;;;;0.70;0.70;;;29.10;49.50;;;;;;6269732;22;20633;-82
2023/05/21 13:13:07;;;;;;;1.80;1.10;;;29.10;49.90;;;;;;6273502;22;20158;-84
2023/05/21 13:15:35;;;;;;;0.85;0.65;;;29.00;50.00;;;;;;6271418;22;20546;-82
2023/05/21 13:18:04;;;;;;;1.33;0.90;;;28.90;50.20;;;;;;6270124;22;20174;-82
2023/05/21 13:20:32;;;;;;;2.58;1.05;;;28.90;50.20;;;;;;6269767;22;20198;-83
2023/05/21 13:23:02;;;;;;;1.27;0.88;;;28.90;50.30;;;;;;6270906;22;20186;-83
2023/05/21 13:25:35;;;;;;;1.70;1.02;;;28.80;49.80;;;;;;6268806;22;20170;-87
2023/05/21 13:28:04;;;;;;;1.25;0.90;;;28.90;50.00;;;;;;6270209;22;20170;-85
2023/05/21 13:30:33;;;;;;;3.45;1.23;;;29.00;49.80;;;;;;6271401;22;20543;-83
2023/05/21 13:33:02;;;;;;;1.05;0.65;;;29.00;49.30;;;;;;6273198;22;20244;-85
2023/05/21 13:35:31;;;;;;;3.13;1.30;;;29.00;48.80;;;;;;6272391;22;20170;-84
2023/05/21 13:37:59;;;;;;;1.60;0.98;;;29.10;48.90;;;;;;6273944;22;20614;-83
2023/05/21 13:40:28;;;;;;;1.80;1.02;;;29.00;48.40;;;;;;6272131;22;20194;-83